sensor_id;sensor_type;location;lat;lon;timestamp;P1;durP1;ratioP1;P2;durP2;ratioP2
17858;SDS011;35426;30.698;104.050;2024-02-28T00:01:04;129.67;;;65.13;;
17858;SDS011;35426;30.698;104.050;2024-02-28T00:03:41;130.53;;;65.77;;
17858;SDS011;35426;30.698;104.050;2024-02-28T00:06:16;138.40;;;67.40;;
17858;SDS011;35426;30.698;104.050;2024-02-28T00:08:49;136.07;;;66.83;;
17858;SDS011;35426;30.698;104.050;2024-02-28T00:11:24;130.00;;;64.80;;
17858;SDS011;35426;30.698;104.050;2024-02-28T00:14:00;122.47;;;60.93;;
17858;SDS011;35426;30.698;104.050;2024-02-28T00:16:33;129.87;;;64.33;;
17858;SDS011;35426;30.698;104.050;2024-02-28T00:19:07;126.63;;;63.47;;
17858;SDS011;35426;30.698;104.050;2024-02-28T00:21:40;136.10;;;66.37;;
17858;SDS011;35426;30.698;104.050;2024-02-28T00:24:15;141.17;;;67.93;;
17858;SDS011;35426;30.698;104.050;2024-02-28T00:26:48;134.13;;;64.77;;
17858;SDS011;35426;30.698;104.050;2024-02-28T00:29:23;125.03;;;60.57;;
17858;SDS011;35426;30.698;104.050;2024-02-28T00:31:57;120.83;;;61.67;;
17858;SDS011;35426;30.698;104.050;2024-02-28T00:34:33;126.40;;;62.27;;
17858;SDS011;35426;30.698;104.050;2024-02-28T00:37:08;117.17;;;59.83;;
17858;SDS011;35426;30.698;104.050;2024-02-28T00:39:43;119.23;;;59.10;;
17858;SDS011;35426;30.698;104.050;2024-02-28T00:42:16;129.07;;;64.90;;
17858;SDS011;35426;30.698;104.050;2024-02-28T00:44:52;123.57;;;58.93;;
17858;SDS011;35426;30.698;104.050;2024-02-28T00:47:26;127.30;;;65.37;;
17858;SDS011;35426;30.698;104.050;2024-02-28T00:49:59;124.93;;;62.50;;
17858;SDS011;35426;30.698;104.050;2024-02-28T00:52:33;121.97;;;61.23;;
17858;SDS011;35426;30.698;104.050;2024-02-28T00:55:07;141.77;;;67.53;;
17858;SDS011;35426;30.698;104.050;2024-02-28T00:57:40;134.13;;;66.10;;
17858;SDS011;35426;30.698;104.050;2024-02-28T01:00:16;129.77;;;64.53;;
17858;SDS011;35426;30.698;104.050;2024-02-28T01:02:50;140.60;;;69.97;;
17858;SDS011;35426;30.698;104.050;2024-02-28T01:05:27;146.77;;;71.03;;
17858;SDS011;35426;30.698;104.050;2024-02-28T01:08:15;142.17;;;67.67;;
17858;SDS011;35426;30.698;104.050;2024-02-28T01:10:49;136.93;;;69.10;;
17858;SDS011;35426;30.698;104.050;2024-02-28T01:13:22;131.57;;;65.30;;
17858;SDS011;35426;30.698;104.050;2024-02-28T01:15:58;144.03;;;70.27;;
17858;SDS011;35426;30.698;104.050;2024-02-28T01:18:31;135.40;;;68.60;;
17858;SDS011;35426;30.698;104.050;2024-02-28T01:21:05;136.70;;;65.70;;
17858;SDS011;35426;30.698;104.050;2024-02-28T01:23:40;130.73;;;65.53;;
17858;SDS011;35426;30.698;104.050;2024-02-28T01:26:14;120.93;;;61.87;;
17858;SDS011;35426;30.698;104.050;2024-02-28T01:28:49;124.40;;;64.63;;
17858;SDS011;35426;30.698;104.050;2024-02-28T01:31:25;125.23;;;61.97;;
17858;SDS011;35426;30.698;104.050;2024-02-28T01:34:00;132.23;;;66.30;;
17858;SDS011;35426;30.698;104.050;2024-02-28T01:36:39;128.27;;;61.70;;
17858;SDS011;35426;30.698;104.050;2024-02-28T01:39:12;116.53;;;59.47;;
17858;SDS011;35426;30.698;104.050;2024-02-28T01:41:51;117.77;;;60.13;;
17858;SDS011;35426;30.698;104.050;2024-02-28T01:44:24;139.87;;;71.23;;
17858;SDS011;35426;30.698;104.050;2024-02-28T01:46:59;139.07;;;70.27;;
17858;SDS011;35426;30.698;104.050;2024-02-28T01:49:33;146.80;;;70.80;;
17858;SDS011;35426;30.698;104.050;2024-02-28T01:52:06;135.27;;;67.70;;
17858;SDS011;35426;30.698;104.050;2024-02-28T01:54:41;136.07;;;70.17;;
17858;SDS011;35426;30.698;104.050;2024-02-28T01:57:16;133.13;;;67.97;;
17858;SDS011;35426;30.698;104.050;2024-02-28T01:59:49;142.03;;;71.93;;
17858;SDS011;35426;30.698;104.050;2024-02-28T02:02:29;145.13;;;71.70;;
17858;SDS011;35426;30.698;104.050;2024-02-28T02:05:06;135.00;;;69.63;;
17858;SDS011;35426;30.698;104.050;2024-02-28T02:07:41;138.37;;;68.60;;
17858;SDS011;35426;30.698;104.050;2024-02-28T02:10:15;143.60;;;71.07;;
17858;SDS011;35426;30.698;104.050;2024-02-28T02:12:49;158.33;;;78.70;;
17858;SDS011;35426;30.698;104.050;2024-02-28T02:15:22;153.40;;;75.43;;
17858;SDS011;35426;30.698;104.050;2024-02-28T02:18:00;144.20;;;72.67;;
17858;SDS011;35426;30.698;104.050;2024-02-28T02:20:33;156.17;;;74.87;;
17858;SDS011;35426;30.698;104.050;2024-02-28T02:23:11;150.77;;;72.13;;
17858;SDS011;35426;30.698;104.050;2024-02-28T02:25:45;137.93;;;67.57;;
17858;SDS011;35426;30.698;104.050;2024-02-28T02:28:19;131.77;;;65.57;;
17858;SDS011;35426;30.698;104.050;2024-02-28T02:30:52;138.27;;;69.50;;
17858;SDS011;35426;30.698;104.050;2024-02-28T02:33:29;144.03;;;70.10;;
17858;SDS011;35426;30.698;104.050;2024-02-28T02:36:02;139.03;;;69.93;;
17858;SDS011;35426;30.698;104.050;2024-02-28T02:38:38;145.97;;;72.77;;
17858;SDS011;35426;30.698;104.050;2024-02-28T02:41:11;139.30;;;70.30;;
17858;SDS011;35426;30.698;104.050;2024-02-28T02:43:45;145.07;;;70.77;;
17858;SDS011;35426;30.698;104.050;2024-02-28T02:46:18;144.13;;;73.07;;
17858;SDS011;35426;30.698;104.050;2024-02-28T02:48:52;143.30;;;68.07;;
17858;SDS011;35426;30.698;104.050;2024-02-28T02:51:26;150.53;;;72.37;;
17858;SDS011;35426;30.698;104.050;2024-02-28T02:54:03;137.60;;;67.70;;
17858;SDS011;35426;30.698;104.050;2024-02-28T02:56:36;140.47;;;69.90;;
17858;SDS011;35426;30.698;104.050;2024-02-28T02:59:13;143.17;;;71.67;;
17858;SDS011;35426;30.698;104.050;2024-02-28T03:01:48;145.97;;;72.17;;
17858;SDS011;35426;30.698;104.050;2024-02-28T03:04:26;139.03;;;69.90;;
17858;SDS011;35426;30.698;104.050;2024-02-28T03:07:01;133.93;;;65.87;;
17858;SDS011;35426;30.698;104.050;2024-02-28T03:09:37;136.07;;;68.17;;
17858;SDS011;35426;30.698;104.050;2024-02-28T03:12:10;139.47;;;68.50;;
17858;SDS011;35426;30.698;104.050;2024-02-28T03:14:44;130.90;;;63.80;;
17858;SDS011;35426;30.698;104.050;2024-02-28T03:17:17;126.50;;;61.43;;
17858;SDS011;35426;30.698;104.050;2024-02-28T03:19:50;127.97;;;62.10;;
17858;SDS011;35426;30.698;104.050;2024-02-28T03:22:24;125.10;;;60.17;;
17858;SDS011;35426;30.698;104.050;2024-02-28T03:25:01;142.50;;;68.07;;
17858;SDS011;35426;30.698;104.050;2024-02-28T03:27:35;132.07;;;63.43;;
17858;SDS011;35426;30.698;104.050;2024-02-28T03:30:09;126.83;;;63.83;;
17858;SDS011;35426;30.698;104.050;2024-02-28T03:32:44;128.13;;;62.10;;
17858;SDS011;35426;30.698;104.050;2024-02-28T03:35:24;129.13;;;62.67;;
17858;SDS011;35426;30.698;104.050;2024-02-28T03:37:57;140.67;;;67.63;;
17858;SDS011;35426;30.698;104.050;2024-02-28T03:40:33;130.03;;;65.17;;
17858;SDS011;35426;30.698;104.050;2024-02-28T03:43:06;135.33;;;66.03;;
17858;SDS011;35426;30.698;104.050;2024-02-28T03:45:40;126.27;;;63.90;;
17858;SDS011;35426;30.698;104.050;2024-02-28T03:48:14;138.13;;;70.43;;
17858;SDS011;35426;30.698;104.050;2024-02-28T03:50:48;138.73;;;66.80;;
17858;SDS011;35426;30.698;104.050;2024-02-28T03:53:22;123.97;;;63.27;;
17858;SDS011;35426;30.698;104.050;2024-02-28T03:55:58;122.73;;;61.30;;
17858;SDS011;35426;30.698;104.050;2024-02-28T03:58:32;133.57;;;65.47;;
17858;SDS011;35426;30.698;104.050;2024-02-28T04:01:06;129.27;;;63.30;;
17858;SDS011;35426;30.698;104.050;2024-02-28T04:03:39;127.97;;;63.43;;
17858;SDS011;35426;30.698;104.050;2024-02-28T04:06:13;124.27;;;62.80;;
17858;SDS011;35426;30.698;104.050;2024-02-28T04:08:48;122.97;;;60.27;;
17858;SDS011;35426;30.698;104.050;2024-02-28T04:11:25;128.13;;;65.63;;
17858;SDS011;35426;30.698;104.050;2024-02-28T04:13:59;127.27;;;66.80;;
17858;SDS011;35426;30.698;104.050;2024-02-28T04:16:32;129.73;;;64.23;;
17858;SDS011;35426;30.698;104.050;2024-02-28T04:19:06;128.90;;;65.87;;
17858;SDS011;35426;30.698;104.050;2024-02-28T04:21:41;136.57;;;66.87;;
17858;SDS011;35426;30.698;104.050;2024-02-28T04:24:15;122.77;;;62.33;;
17858;SDS011;35426;30.698;104.050;2024-02-28T04:26:50;114.33;;;59.50;;
17858;SDS011;35426;30.698;104.050;2024-02-28T04:29:34;108.53;;;55.80;;
17858;SDS011;35426;30.698;104.050;2024-02-28T04:32:16;123.57;;;59.40;;
17858;SDS011;35426;30.698;104.050;2024-02-28T04:34:49;127.67;;;61.87;;
17858;SDS011;35426;30.698;104.050;2024-02-28T04:37:24;137.90;;;68.17;;
17858;SDS011;35426;30.698;104.050;2024-02-28T04:39:57;124.33;;;62.50;;
17858;SDS011;35426;30.698;104.050;2024-02-28T04:42:32;119.00;;;60.70;;
17858;SDS011;35426;30.698;104.050;2024-02-28T04:45:07;132.20;;;64.13;;
17858;SDS011;35426;30.698;104.050;2024-02-28T04:47:41;130.17;;;64.37;;
17858;SDS011;35426;30.698;104.050;2024-02-28T04:50:14;117.60;;;58.90;;
17858;SDS011;35426;30.698;104.050;2024-02-28T04:52:49;111.27;;;54.83;;
17858;SDS011;35426;30.698;104.050;2024-02-28T04:55:24;103.80;;;51.17;;
17858;SDS011;35426;30.698;104.050;2024-02-28T04:58:02;104.73;;;51.53;;
17858;SDS011;35426;30.698;104.050;2024-02-28T05:00:42;102.70;;;52.83;;
17858;SDS011;35426;30.698;104.050;2024-02-28T05:03:17;108.33;;;56.70;;
17858;SDS011;35426;30.698;104.050;2024-02-28T05:05:52;108.90;;;55.53;;
17858;SDS011;35426;30.698;104.050;2024-02-28T05:08:26;101.50;;;54.03;;
17858;SDS011;35426;30.698;104.050;2024-02-28T05:10:59;101.83;;;53.47;;
17858;SDS011;35426;30.698;104.050;2024-02-28T05:13:38;101.37;;;52.80;;
17858;SDS011;35426;30.698;104.050;2024-02-28T05:16:14;111.40;;;54.80;;
17858;SDS011;35426;30.698;104.050;2024-02-28T05:18:48;108.17;;;55.77;;
17858;SDS011;35426;30.698;104.050;2024-02-28T05:21:22;99.50;;;52.13;;
17858;SDS011;35426;30.698;104.050;2024-02-28T05:23:56;108.20;;;55.23;;
17858;SDS011;35426;30.698;104.050;2024-02-28T05:26:31;112.57;;;55.97;;
17858;SDS011;35426;30.698;104.050;2024-02-28T05:29:13;117.47;;;59.17;;
17858;SDS011;35426;30.698;104.050;2024-02-28T05:31:49;112.77;;;57.63;;
17858;SDS011;35426;30.698;104.050;2024-02-28T05:34:24;107.80;;;57.73;;
17858;SDS011;35426;30.698;104.050;2024-02-28T05:36:58;119.07;;;58.33;;
17858;SDS011;35426;30.698;104.050;2024-02-28T05:39:31;118.03;;;58.43;;
17858;SDS011;35426;30.698;104.050;2024-02-28T05:42:05;113.57;;;57.97;;
17858;SDS011;35426;30.698;104.050;2024-02-28T05:44:41;110.77;;;58.57;;
17858;SDS011;35426;30.698;104.050;2024-02-28T05:47:14;117.43;;;58.07;;
17858;SDS011;35426;30.698;104.050;2024-02-28T05:49:52;109.93;;;56.90;;
17858;SDS011;35426;30.698;104.050;2024-02-28T05:52:28;106.90;;;57.00;;
17858;SDS011;35426;30.698;104.050;2024-02-28T05:55:02;113.93;;;60.00;;
17858;SDS011;35426;30.698;104.050;2024-02-28T05:57:45;111.63;;;58.87;;
17858;SDS011;35426;30.698;104.050;2024-02-28T06:00:21;118.37;;;59.20;;
17858;SDS011;35426;30.698;104.050;2024-02-28T06:02:55;114.17;;;58.77;;
17858;SDS011;35426;30.698;104.050;2024-02-28T06:05:30;115.53;;;60.07;;
17858;SDS011;35426;30.698;104.050;2024-02-28T06:08:07;120.83;;;61.03;;
17858;SDS011;35426;30.698;104.050;2024-02-28T06:10:40;112.37;;;57.33;;
17858;SDS011;35426;30.698;104.050;2024-02-28T06:13:16;122.27;;;58.97;;
17858;SDS011;35426;30.698;104.050;2024-02-28T06:15:52;108.17;;;55.23;;
17858;SDS011;35426;30.698;104.050;2024-02-28T06:18:26;116.50;;;59.33;;
17858;SDS011;35426;30.698;104.050;2024-02-28T06:21:03;112.97;;;59.10;;
17858;SDS011;35426;30.698;104.050;2024-02-28T06:23:36;115.37;;;58.03;;
17858;SDS011;35426;30.698;104.050;2024-02-28T06:26:10;112.50;;;57.50;;
17858;SDS011;35426;30.698;104.050;2024-02-28T06:28:46;108.23;;;55.70;;
17858;SDS011;35426;30.698;104.050;2024-02-28T06:31:26;106.57;;;55.80;;
17858;SDS011;35426;30.698;104.050;2024-02-28T06:34:00;113.00;;;56.23;;
17858;SDS011;35426;30.698;104.050;2024-02-28T06:36:38;106.90;;;55.23;;
17858;SDS011;35426;30.698;104.050;2024-02-28T06:39:12;102.27;;;52.50;;
17858;SDS011;35426;30.698;104.050;2024-02-28T06:41:46;92.60;;;50.40;;
17858;SDS011;35426;30.698;104.050;2024-02-28T06:44:21;91.43;;;49.90;;
17858;SDS011;35426;30.698;104.050;2024-02-28T06:47:00;96.20;;;51.63;;
17858;SDS011;35426;30.698;104.050;2024-02-28T06:49:33;96.07;;;51.57;;
17858;SDS011;35426;30.698;104.050;2024-02-28T06:52:07;96.40;;;52.30;;
17858;SDS011;35426;30.698;104.050;2024-02-28T06:54:41;96.67;;;52.33;;
17858;SDS011;35426;30.698;104.050;2024-02-28T06:57:14;100.90;;;53.53;;
17858;SDS011;35426;30.698;104.050;2024-02-28T06:59:50;109.80;;;57.90;;
17858;SDS011;35426;30.698;104.050;2024-02-28T07:02:34;106.30;;;55.83;;
17858;SDS011;35426;30.698;104.050;2024-02-28T07:05:14;116.23;;;60.97;;
17858;SDS011;35426;30.698;104.050;2024-02-28T07:07:50;112.63;;;57.00;;
17858;SDS011;35426;30.698;104.050;2024-02-28T07:10:24;105.40;;;53.90;;
17858;SDS011;35426;30.698;104.050;2024-02-28T07:12:57;113.87;;;58.50;;
17858;SDS011;35426;30.698;104.050;2024-02-28T07:15:30;109.27;;;58.17;;
17858;SDS011;35426;30.698;104.050;2024-02-28T07:18:06;106.40;;;55.87;;
17858;SDS011;35426;30.698;104.050;2024-02-28T07:20:39;118.97;;;58.73;;
17858;SDS011;35426;30.698;104.050;2024-02-28T07:23:14;109.43;;;56.70;;
17858;SDS011;35426;30.698;104.050;2024-02-28T07:25:48;115.93;;;60.40;;
17858;SDS011;35426;30.698;104.050;2024-02-28T07:28:22;113.77;;;57.63;;
17858;SDS011;35426;30.698;104.050;2024-02-28T07:30:56;113.67;;;60.07;;
17858;SDS011;35426;30.698;104.050;2024-02-28T07:33:32;118.93;;;62.70;;
17858;SDS011;35426;30.698;104.050;2024-02-28T07:36:06;110.90;;;57.73;;
17858;SDS011;35426;30.698;104.050;2024-02-28T07:38:41;112.20;;;57.17;;
17858;SDS011;35426;30.698;104.050;2024-02-28T07:41:22;113.07;;;58.20;;
17858;SDS011;35426;30.698;104.050;2024-02-28T07:43:55;111.83;;;58.90;;
17858;SDS011;35426;30.698;104.050;2024-02-28T07:46:31;118.97;;;60.00;;
17858;SDS011;35426;30.698;104.050;2024-02-28T07:49:06;120.10;;;62.83;;
17858;SDS011;35426;30.698;104.050;2024-02-28T07:51:40;108.37;;;58.40;;
17858;SDS011;35426;30.698;104.050;2024-02-28T07:54:14;117.40;;;59.73;;
17858;SDS011;35426;30.698;104.050;2024-02-28T07:56:48;111.03;;;58.17;;
17858;SDS011;35426;30.698;104.050;2024-02-28T07:59:22;106.43;;;56.63;;
17858;SDS011;35426;30.698;104.050;2024-02-28T08:01:57;96.97;;;51.77;;
17858;SDS011;35426;30.698;104.050;2024-02-28T08:04:33;98.87;;;53.80;;
17858;SDS011;35426;30.698;104.050;2024-02-28T08:07:06;100.80;;;52.33;;
17858;SDS011;35426;30.698;104.050;2024-02-28T08:09:39;111.27;;;57.80;;
17858;SDS011;35426;30.698;104.050;2024-02-28T08:12:14;115.50;;;57.77;;
17858;SDS011;35426;30.698;104.050;2024-02-28T08:14:48;99.78;;;54.00;;
17858;SDS011;35426;30.698;104.050;2024-02-28T08:17:22;102.70;;;53.40;;
17858;SDS011;35426;30.698;104.050;2024-02-28T08:19:58;99.30;;;53.63;;
17858;SDS011;35426;30.698;104.050;2024-02-28T08:22:32;96.77;;;51.33;;
17858;SDS011;35426;30.698;104.050;2024-02-28T08:25:05;103.63;;;53.13;;
17858;SDS011;35426;30.698;104.050;2024-02-28T08:27:41;98.27;;;53.60;;
17858;SDS011;35426;30.698;104.050;2024-02-28T08:30:15;106.47;;;54.93;;
17858;SDS011;35426;30.698;104.050;2024-02-28T08:32:49;102.07;;;53.20;;
17858;SDS011;35426;30.698;104.050;2024-02-28T08:35:23;105.60;;;54.93;;
17858;SDS011;35426;30.698;104.050;2024-02-28T08:37:58;102.90;;;52.07;;
17858;SDS011;35426;30.698;104.050;2024-02-28T08:40:32;94.60;;;49.67;;
17858;SDS011;35426;30.698;104.050;2024-02-28T08:43:05;93.60;;;48.77;;
17858;SDS011;35426;30.698;104.050;2024-02-28T08:45:45;107.27;;;53.87;;
17858;SDS011;35426;30.698;104.050;2024-02-28T08:48:19;100.53;;;53.47;;
17858;SDS011;35426;30.698;104.050;2024-02-28T08:50:54;96.03;;;51.27;;
17858;SDS011;35426;30.698;104.050;2024-02-28T08:53:28;92.43;;;49.73;;
17858;SDS011;35426;30.698;104.050;2024-02-28T08:56:02;96.00;;;51.30;;
17858;SDS011;35426;30.698;104.050;2024-02-28T08:58:36;100.37;;;52.13;;
17858;SDS011;35426;30.698;104.050;2024-02-28T09:01:13;102.27;;;52.23;;
17858;SDS011;35426;30.698;104.050;2024-02-28T09:03:47;101.70;;;51.57;;
17858;SDS011;35426;30.698;104.050;2024-02-28T09:06:22;96.80;;;50.13;;
17858;SDS011;35426;30.698;104.050;2024-02-28T09:08:56;96.90;;;49.97;;
17858;SDS011;35426;30.698;104.050;2024-02-28T09:11:30;94.17;;;48.97;;
17858;SDS011;35426;30.698;104.050;2024-02-28T09:14:03;87.47;;;46.80;;
17858;SDS011;35426;30.698;104.050;2024-02-28T09:16:37;91.77;;;48.33;;
17858;SDS011;35426;30.698;104.050;2024-02-28T09:19:15;94.73;;;47.77;;
17858;SDS011;35426;30.698;104.050;2024-02-28T09:21:50;86.60;;;47.53;;
17858;SDS011;35426;30.698;104.050;2024-02-28T09:24:26;86.17;;;46.37;;
17858;SDS011;35426;30.698;104.050;2024-02-28T09:27:01;92.57;;;46.87;;
17858;SDS011;35426;30.698;104.050;2024-02-28T09:29:34;92.47;;;47.03;;
17858;SDS011;35426;30.698;104.050;2024-02-28T09:32:08;86.77;;;46.07;;
17858;SDS011;35426;30.698;104.050;2024-02-28T09:34:42;90.03;;;46.77;;
17858;SDS011;35426;30.698;104.050;2024-02-28T09:37:17;91.20;;;45.80;;
17858;SDS011;35426;30.698;104.050;2024-02-28T09:39:52;90.37;;;46.27;;
17858;SDS011;35426;30.698;104.050;2024-02-28T09:42:25;91.03;;;46.70;;
17858;SDS011;35426;30.698;104.050;2024-02-28T09:44:59;92.87;;;46.77;;
17858;SDS011;35426;30.698;104.050;2024-02-28T09:47:33;83.40;;;46.17;;
17858;SDS011;35426;30.698;104.050;2024-02-28T09:50:11;87.07;;;45.03;;
17858;SDS011;35426;30.698;104.050;2024-02-28T09:52:51;95.50;;;49.60;;
17858;SDS011;35426;30.698;104.050;2024-02-28T09:55:37;89.13;;;46.00;;
17858;SDS011;35426;30.698;104.050;2024-02-28T09:58:11;83.43;;;45.37;;
17858;SDS011;35426;30.698;104.050;2024-02-28T10:00:45;94.17;;;47.23;;
17858;SDS011;35426;30.698;104.050;2024-02-28T10:03:19;83.13;;;47.23;;
17858;SDS011;35426;30.698;104.050;2024-02-28T10:05:54;86.73;;;46.40;;
17858;SDS011;35426;30.698;104.050;2024-02-28T10:08:35;90.53;;;47.00;;
17858;SDS011;35426;30.698;104.050;2024-02-28T10:11:09;88.43;;;46.47;;
17858;SDS011;35426;30.698;104.050;2024-02-28T10:13:42;81.63;;;44.83;;
17858;SDS011;35426;30.698;104.050;2024-02-28T10:16:16;94.60;;;48.17;;
17858;SDS011;35426;30.698;104.050;2024-02-28T10:18:49;90.13;;;48.73;;
17858;SDS011;35426;30.698;104.050;2024-02-28T10:21:24;96.13;;;48.10;;
17858;SDS011;35426;30.698;104.050;2024-02-28T10:24:01;95.10;;;50.57;;
17858;SDS011;35426;30.698;104.050;2024-02-28T10:26:42;90.07;;;47.00;;
17858;SDS011;35426;30.698;104.050;2024-02-28T10:29:16;82.60;;;44.87;;
17858;SDS011;35426;30.698;104.050;2024-02-28T10:31:50;85.40;;;46.30;;
17858;SDS011;35426;30.698;104.050;2024-02-28T10:34:23;91.07;;;48.80;;
17858;SDS011;35426;30.698;104.050;2024-02-28T10:36:56;97.63;;;50.03;;
17858;SDS011;35426;30.698;104.050;2024-02-28T10:39:36;95.70;;;49.70;;
17858;SDS011;35426;30.698;104.050;2024-02-28T10:42:11;88.43;;;47.97;;
17858;SDS011;35426;30.698;104.050;2024-02-28T10:44:45;85.93;;;46.03;;
17858;SDS011;35426;30.698;104.050;2024-02-28T10:47:40;83.60;;;45.77;;
17858;SDS011;35426;30.698;104.050;2024-02-28T10:50:14;89.53;;;47.17;;
17858;SDS011;35426;30.698;104.050;2024-02-28T10:52:49;87.63;;;45.83;;
17858;SDS011;35426;30.698;104.050;2024-02-28T10:55:29;88.00;;;46.53;;
17858;SDS011;35426;30.698;104.050;2024-02-28T10:58:10;86.90;;;46.33;;
17858;SDS011;35426;30.698;104.050;2024-02-28T11:00:44;80.63;;;44.93;;
17858;SDS011;35426;30.698;104.050;2024-02-28T11:03:18;78.57;;;44.00;;
17858;SDS011;35426;30.698;104.050;2024-02-28T11:05:53;81.60;;;44.07;;
17858;SDS011;35426;30.698;104.050;2024-02-28T11:08:26;81.97;;;44.37;;
17858;SDS011;35426;30.698;104.050;2024-02-28T11:11:04;86.87;;;45.77;;
17858;SDS011;35426;30.698;104.050;2024-02-28T11:13:40;85.63;;;44.30;;
17858;SDS011;35426;30.698;104.050;2024-02-28T11:16:28;82.97;;;43.67;;
17858;SDS011;35426;30.698;104.050;2024-02-28T11:19:02;82.33;;;43.70;;
17858;SDS011;35426;30.698;104.050;2024-02-28T11:21:37;77.73;;;42.53;;
17858;SDS011;35426;30.698;104.050;2024-02-28T11:24:12;77.80;;;41.23;;
17858;SDS011;35426;30.698;104.050;2024-02-28T11:26:48;76.23;;;41.87;;
17858;SDS011;35426;30.698;104.050;2024-02-28T11:29:22;78.10;;;41.87;;
17858;SDS011;35426;30.698;104.050;2024-02-28T11:31:58;75.80;;;40.63;;
17858;SDS011;35426;30.698;104.050;2024-02-28T11:34:31;78.50;;;40.93;;
17858;SDS011;35426;30.698;104.050;2024-02-28T11:37:06;76.87;;;41.73;;
17858;SDS011;35426;30.698;104.050;2024-02-28T11:39:39;83.33;;;41.10;;
17858;SDS011;35426;30.698;104.050;2024-02-28T11:42:15;73.73;;;39.30;;
17858;SDS011;35426;30.698;104.050;2024-02-28T11:44:55;73.43;;;40.73;;
17858;SDS011;35426;30.698;104.050;2024-02-28T11:47:29;66.63;;;36.80;;
17858;SDS011;35426;30.698;104.050;2024-02-28T11:50:03;73.50;;;40.43;;
17858;SDS011;35426;30.698;104.050;2024-02-28T11:52:39;74.00;;;40.83;;
17858;SDS011;35426;30.698;104.050;2024-02-28T11:55:13;78.97;;;41.07;;
17858;SDS011;35426;30.698;104.050;2024-02-28T11:57:49;79.63;;;41.00;;
17858;SDS011;35426;30.698;104.050;2024-02-28T12:00:22;78.27;;;40.77;;
17858;SDS011;35426;30.698;104.050;2024-02-28T12:03:04;77.23;;;41.40;;
17858;SDS011;35426;30.698;104.050;2024-02-28T12:05:38;77.83;;;42.87;;
17858;SDS011;35426;30.698;104.050;2024-02-28T12:08:13;77.47;;;41.70;;
17858;SDS011;35426;30.698;104.050;2024-02-28T12:10:46;76.20;;;43.13;;
17858;SDS011;35426;30.698;104.050;2024-02-28T12:13:26;82.10;;;43.03;;
17858;SDS011;35426;30.698;104.050;2024-02-28T12:16:00;73.93;;;39.03;;
17858;SDS011;35426;30.698;104.050;2024-02-28T12:18:35;82.73;;;42.40;;
17858;SDS011;35426;30.698;104.050;2024-02-28T12:21:09;78.50;;;42.00;;
17858;SDS011;35426;30.698;104.050;2024-02-28T12:23:42;74.67;;;40.40;;
17858;SDS011;35426;30.698;104.050;2024-02-28T12:26:16;83.30;;;43.93;;
17858;SDS011;35426;30.698;104.050;2024-02-28T12:28:52;88.27;;;43.87;;
17858;SDS011;35426;30.698;104.050;2024-02-28T12:31:25;84.87;;;43.10;;
17858;SDS011;35426;30.698;104.050;2024-02-28T12:33:59;79.67;;;41.30;;
17858;SDS011;35426;30.698;104.050;2024-02-28T12:36:33;71.27;;;38.43;;
17858;SDS011;35426;30.698;104.050;2024-02-28T12:39:06;71.30;;;38.43;;
17858;SDS011;35426;30.698;104.050;2024-02-28T12:41:40;82.10;;;41.47;;
17858;SDS011;35426;30.698;104.050;2024-02-28T12:44:16;78.70;;;42.23;;
17858;SDS011;35426;30.698;104.050;2024-02-28T12:46:49;81.13;;;41.13;;
17858;SDS011;35426;30.698;104.050;2024-02-28T12:49:23;77.23;;;41.43;;
17858;SDS011;35426;30.698;104.050;2024-02-28T12:51:57;75.40;;;40.43;;
17858;SDS011;35426;30.698;104.050;2024-02-28T12:54:30;74.90;;;39.00;;
17858;SDS011;35426;30.698;104.050;2024-02-28T12:57:03;70.97;;;38.80;;
17858;SDS011;35426;30.698;104.050;2024-02-28T12:59:40;74.93;;;38.50;;
17858;SDS011;35426;30.698;104.050;2024-02-28T13:02:18;69.83;;;37.67;;
17858;SDS011;35426;30.698;104.050;2024-02-28T13:04:51;69.27;;;38.17;;
17858;SDS011;35426;30.698;104.050;2024-02-28T13:07:25;71.43;;;37.47;;
17858;SDS011;35426;30.698;104.050;2024-02-28T13:09:59;63.03;;;36.07;;
17858;SDS011;35426;30.698;104.050;2024-02-28T13:12:34;68.93;;;38.57;;
17858;SDS011;35426;30.698;104.050;2024-02-28T13:15:11;70.50;;;38.03;;
17858;SDS011;35426;30.698;104.050;2024-02-28T13:17:44;63.83;;;36.67;;
17858;SDS011;35426;30.698;104.050;2024-02-28T13:20:19;65.43;;;37.17;;
17858;SDS011;35426;30.698;104.050;2024-02-28T13:22:52;64.47;;;35.60;;
17858;SDS011;35426;30.698;104.050;2024-02-28T13:25:28;67.60;;;37.17;;
17858;SDS011;35426;30.698;104.050;2024-02-28T13:28:02;65.23;;;37.97;;
17858;SDS011;35426;30.698;104.050;2024-02-28T13:30:38;68.20;;;36.83;;
17858;SDS011;35426;30.698;104.050;2024-02-28T13:33:12;65.70;;;36.17;;
17858;SDS011;35426;30.698;104.050;2024-02-28T13:35:46;68.13;;;36.17;;
17858;SDS011;35426;30.698;104.050;2024-02-28T13:38:20;72.90;;;37.57;;
17858;SDS011;35426;30.698;104.050;2024-02-28T13:40:54;68.73;;;37.53;;
17858;SDS011;35426;30.698;104.050;2024-02-28T13:43:29;66.87;;;38.17;;
17858;SDS011;35426;30.698;104.050;2024-02-28T13:46:04;69.40;;;38.53;;
17858;SDS011;35426;30.698;104.050;2024-02-28T13:48:39;69.40;;;38.43;;
17858;SDS011;35426;30.698;104.050;2024-02-28T13:51:15;69.17;;;38.33;;
17858;SDS011;35426;30.698;104.050;2024-02-28T13:53:49;73.07;;;38.73;;
17858;SDS011;35426;30.698;104.050;2024-02-28T13:56:24;72.33;;;38.43;;
17858;SDS011;35426;30.698;104.050;2024-02-28T13:58:57;66.67;;;36.77;;
17858;SDS011;35426;30.698;104.050;2024-02-28T14:01:33;67.13;;;37.33;;
17858;SDS011;35426;30.698;104.050;2024-02-28T14:04:08;74.27;;;38.67;;
17858;SDS011;35426;30.698;104.050;2024-02-28T14:06:42;65.13;;;37.00;;
17858;SDS011;35426;30.698;104.050;2024-02-28T14:09:16;69.23;;;38.33;;
17858;SDS011;35426;30.698;104.050;2024-02-28T14:11:49;67.83;;;37.20;;
17858;SDS011;35426;30.698;104.050;2024-02-28T14:14:23;73.20;;;38.57;;
17858;SDS011;35426;30.698;104.050;2024-02-28T14:16:59;68.37;;;37.47;;
17858;SDS011;35426;30.698;104.050;2024-02-28T14:19:34;68.83;;;38.50;;
17858;SDS011;35426;30.698;104.050;2024-02-28T14:22:08;72.80;;;38.47;;
17858;SDS011;35426;30.698;104.050;2024-02-28T14:24:42;69.50;;;37.63;;
17858;SDS011;35426;30.698;104.050;2024-02-28T14:27:15;69.13;;;38.07;;
17858;SDS011;35426;30.698;104.050;2024-02-28T14:29:50;69.30;;;39.27;;
17858;SDS011;35426;30.698;104.050;2024-02-28T14:32:26;68.93;;;38.83;;